Time;durP1;ratioP1;P1;durP2;ratioP2;P2;SDS_P1;SDS_P2;PMS_P1;PMS_P2;Temp;Humidity;BMP_temperature;BMP_pressure;BME280_temperature;BME280_humidity;BME280_pressure;Samples;Min_cycle;Max_cycle;Signal;HPM_P1;HPM_P2
2022/04/01 00:00:21;;;;;;;21.57;6.23;;;;;;;12.07;100.00;98014.14;1465939;88;21607;-76
2022/04/01 00:02:47;;;;;;;19.50;5.63;;;;;;;12.09;100.00;98012.09;1465118;88;21419;-76
2022/04/01 00:05:14;;;;;;;38.20;7.40;;;;;;;12.11;100.00;98014.02;1471959;88;21433;-76
2022/04/01 00:07:40;;;;;;;32.57;9.10;;;;;;;12.14;100.00;98007.45;1494190;87;22475;-76
2022/04/01 00:10:08;;;;;;;19.33;6.73;;;;;;;12.14;100.00;98005.63;1495578;87;21352;-76
2022/04/01 00:12:42;;;;;;;23.90;7.53;;;;;;;12.18;100.00;98008.13;1494315;87;22468;-76
2022/04/01 00:15:09;;;;;;;26.13;7.80;;;;;;;12.19;100.00;98007.09;1484210;87;21374;-76
2022/04/01 00:17:35;;;;;;;22.30;7.20;;;;;;;12.19;100.00;98007.09;1490378;87;21322;-76
2022/04/01 00:20:03;;;;;;;25.23;7.93;;;;;;;12.19;100.00;98003.12;1481300;87;21418;-76
2022/04/01 00:22:29;;;;;;;30.87;7.63;;;;;;;12.22;100.00;98006.38;1474194;87;21485;-78
2022/04/01 00:24:55;;;;;;;26.97;7.53;;;;;;;12.23;100.00;98004.00;1478616;87;21300;-77
2022/04/01 00:27:21;;;;;;;29.83;8.20;;;;;;;12.23;100.00;98006.17;1483084;87;21573;-77
2022/04/01 00:29:48;;;;;;;34.73;9.77;;;;;;;12.22;100.00;98000.55;1476891;87;22801;-77
2022/04/01 00:32:14;;;;;;;27.17;7.73;;;;;;;12.20;100.00;97997.33;1496414;87;21440;-78
2022/04/01 00:34:41;;;;;;;20.20;6.93;;;;;;;12.21;100.00;98000.78;1483558;87;21618;-77
2022/04/01 00:37:07;;;;;;;23.83;6.70;;;;;;;12.21;100.00;97999.45;1478729;87;21433;-77
2022/04/01 00:39:33;;;;;;;27.80;9.10;;;;;;;12.23;100.00;98001.36;1484130;87;22439;-77
2022/04/01 00:42:02;;;;;;;27.90;8.13;;;;;;;12.21;100.00;97998.13;1483551;87;21270;-77
2022/04/01 00:44:32;;;;;;;24.37;8.43;;;;;;;12.23;100.00;98001.36;1476477;86;23608;-77
2022/04/01 00:47:01;;;;;;;18.80;7.77;;;;;;;12.22;100.00;98002.39;1487417;85;21440;-78
2022/04/01 00:49:28;;;;;;;26.70;10.87;;;;;;;12.24;100.00;97999.02;1488100;87;22275;-78
2022/04/01 00:51:58;;;;;;;26.40;9.43;;;;;;;12.25;100.00;98001.95;1476596;87;21914;-77
2022/04/01 00:54:25;;;;;;;27.37;10.40;;;;;;;12.23;100.00;98000.03;1462323;88;21478;-79
2022/04/01 00:56:51;;;;;;;31.13;11.47;;;;;;;12.21;100.00;97996.80;1471547;87;21374;-80
2022/04/01 00:59:18;;;;;;;30.80;10.50;;;;;;;12.21;100.00;98008.22;1485154;87;23165;-77
2022/04/01 01:01:44;;;;;;;24.77;8.87;;;;;;;12.21;100.00;98004.23;1485368;87;21411;-77
2022/04/01 01:04:13;;;;;;;26.33;9.60;;;;;;;12.22;100.00;98003.72;1484982;87;21448;-76
2022/04/01 01:06:45;;;;;;;25.90;9.63;;;;;;;12.21;100.00;97999.45;1492491;87;22342;-76
2022/04/01 01:09:14;;;;;;;24.43;9.03;;;;;;;12.24;99.59;98005.66;1489519;87;21359;-77
2022/04/01 01:11:42;;;;;;;32.17;10.73;;;;;;;12.22;99.72;98004.53;1485393;87;22320;-77
2022/04/01 01:14:10;;;;;;;25.40;9.47;;;;;;;12.24;99.62;98009.11;1494287;87;21469;-77
2022/04/01 01:16:44;;;;;;;30.10;8.73;;;;;;;12.24;99.55;98004.33;1480112;87;21515;-77
2022/04/01 01:19:18;;;;;;;31.20;10.70;;;;;;;12.23;99.46;98011.47;1480390;87;21463;-76
2022/04/01 01:21:44;;;;;;;27.17;11.50;;;;;;;12.23;99.33;98005.33;1481469;87;22261;-78
2022/04/01 01:24:16;;;;;;;37.50;11.70;;;;;;;12.21;99.68;98004.76;1484449;87;21470;-77
2022/04/01 01:26:52;;;;;;;33.07;11.00;;;;;;;12.20;99.51;98006.61;1477633;87;22061;-77
2022/04/01 01:29:28;;;;;;;24.73;9.03;;;;;;;12.18;99.88;98004.16;1486355;85;21394;-77
2022/04/01 01:31:56;;;;;;;31.50;11.83;;;;;;;12.17;99.83;98005.20;1478958;87;21411;-76
2022/04/01 01:34:23;;;;;;;23.00;9.00;;;;;;;12.14;100.00;98004.80;1476949;87;22394;-76
2022/04/01 01:36:51;;;;;;;42.70;11.90;;;;;;;12.17;99.52;98001.73;1477974;87;21403;-76
2022/04/01 01:39:19;;;;;;;25.67;8.33;;;;;;;12.15;99.56;98001.94;1488914;87;21510;-77
2022/04/01 01:41:47;;;;;;;22.60;9.23;;;;;;;12.12;99.84;97998.40;1486875;87;21411;-77
2022/04/01 01:44:14;;;;;;;31.33;10.77;;;;;;;12.13;99.46;98002.66;1486315;87;21396;-77
2022/04/01 01:46:41;;;;;;;25.53;9.50;;;;;;;12.11;99.68;98002.58;1478836;87;21470;-76
2022/04/01 01:49:07;;;;;;;31.37;10.70;;;;;;;12.12;99.15;98010.33;1484947;87;21502;-76
2022/04/01 01:57:04;;;;;;;22.03;7.33;;;;;;;12.08;99.16;98010.97;1467984;87;21323;-76
2022/04/01 01:59:30;;;;;;;27.53;8.70;;;;;;;12.07;99.24;98017.30;1471424;87;21551;-76
2022/04/01 02:01:56;;;;;;;24.20;7.50;;;;;;;12.07;99.04;98017.30;1500596;87;22216;-76
2022/04/01 02:04:24;;;;;;;25.13;7.77;;;;;;;12.06;99.05;98016.50;1485945;87;21907;-76
2022/04/01 02:06:50;;;;;;;22.10;8.07;;;;;;;12.07;98.75;98018.11;1478295;87;21411;-76
2022/04/01 02:09:17;;;;;;;27.80;7.13;;;;;;;12.08;98.43;98018.40;1480235;87;21470;-76
2022/04/01 02:11:44;;;;;;;33.43;8.23;;;;;;;12.07;98.34;98016.78;1463179;88;21455;-76
2022/04/01 02:14:11;;;;;;;24.10;8.63;;;;;;;12.08;98.50;98009.13;1486535;86;21372;-76
2022/04/01 02:16:43;;;;;;;28.57;9.00;;;;;;;12.05;98.00;98014.86;1484938;87;21404;-76
2022/04/01 02:19:09;;;;;;;23.57;8.00;;;;;;;12.06;98.08;98019.67;1464145;87;21433;-77
2022/04/01 02:21:35;;;;;;;29.53;8.60;;;;;;;12.03;98.27;98012.95;1456520;88;21308;-78
2022/04/01 02:24:01;;;;;;;43.60;10.00;;;;;;;12.02;97.94;98011.31;1485798;87;21687;-77
2022/04/01 02:26:27;;;;;;;30.00;9.43;;;;;;;12.02;98.00;98015.29;1478787;87;21360;-77
2022/04/01 02:28:56;;;;;;;20.07;8.23;;;;;;;11.99;98.20;98010.42;1481481;87;22350;-77
2022/04/01 02:31:21;;;;;;;23.47;7.60;;;;;;;12.01;97.66;98008.38;1494145;87;21454;-79
2022/04/01 02:33:47;;;;;;;30.03;9.17;;;;;;;12.01;97.88;98007.57;1488930;87;21425;-77
2022/04/01 02:36:13;;;;;;;37.07;8.77;;;;;;;11.99;97.57;98015.72;1493247;86;21404;-77
2022/04/01 02:38:41;;;;;;;22.27;8.53;;;;;;;11.95;97.89;98019.84;1470916;88;21345;-77
2022/04/01 02:41:11;;;;;;;28.30;8.27;;;;;;;11.94;97.78;98016.39;1488540;87;21344;-77
2022/04/01 02:43:38;;;;;;;32.65;8.13;;;;;;;11.94;97.40;98011.61;1484793;87;21329;-77
2022/04/01 02:46:05;;;;;;;24.03;7.83;;;;;;;11.95;97.27;98011.89;1482083;87;22519;-77
2022/04/01 02:48:32;;;;;;;24.07;8.37;;;;;;;11.96;97.31;98009.53;1490316;86;21441;-77
2022/04/01 02:50:58;;;;;;;28.57;7.43;;;;;;;11.97;97.26;98009.84;1498120;87;21300;-78
2022/04/01 02:53:25;;;;;;;28.80;8.03;;;;;;;11.96;97.32;98006.36;1489959;87;21417;-77
2022/04/01 02:55:50;;;;;;;40.03;9.87;;;;;;;11.94;97.39;98004.45;1501487;87;21368;-76
2022/04/01 02:58:16;;;;;;;25.23;7.20;;;;;;;11.97;96.90;98007.20;1464390;87;21491;-76
2022/04/01 03:00:42;;;;;;;26.73;8.43;;;;;;;11.96;96.75;98012.18;1480351;87;21404;-76
2022/04/01 03:03:09;;;;;;;27.53;8.80;;;;;;;11.91;97.47;98005.38;1484152;87;21292;-76
2022/04/01 03:05:39;;;;;;;26.50;7.27;;;;;;;11.89;97.06;97999.50;1489279;87;23374;-76
2022/04/01 03:08:07;;;;;;;23.70;7.20;;;;;;;11.90;96.95;98007.74;1476037;87;21388;-76
2022/04/01 03:10:36;;;;;;;27.70;7.87;;;;;;;11.90;96.73;98011.20;1480405;86;21403;-76
2022/04/01 03:13:03;;;;;;;29.03;9.97;;;;;;;11.89;97.16;98007.45;1480426;86;22284;-76
2022/04/01 03:15:30;;;;;;;20.70;7.53;;;;;;;11.93;96.63;98007.31;1467724;88;21405;-76
2022/04/01 03:17:57;;;;;;;34.37;9.53;;;;;;;11.93;96.59;98004.66;1468302;88;21433;-76
2022/04/01 03:20:25;;;;;;;26.30;9.50;;;;;;;11.95;96.67;98019.84;1478568;88;21390;-76
2022/04/01 03:22:51;;;;;;;23.60;7.47;;;;;;;11.95;96.37;98011.89;1488143;87;21352;-76
2022/04/01 03:25:20;;;;;;;22.70;9.50;;;;;;;11.94;96.38;98019.03;1504246;87;21396;-76
2022/04/01 03:27:48;;;;;;;31.50;8.87;;;;;;;11.93;96.90;98016.59;1493296;87;21271;-76
2022/04/01 03:30:16;;;;;;;29.10;8.77;;;;;;;11.91;97.79;98019.95;1479645;87;22350;-76
2022/04/01 03:32:45;;;;;;;27.07;10.57;;;;;;;11.88;98.18;98021.23;1479707;87;21315;-77
2022/04/01 03:35:15;;;;;;;40.37;9.40;;;;;;;11.83;99.45;98010.94;1466923;87;21346;-76
2022/04/01 03:37:42;;;;;;;24.52;8.13;;;;;;;11.82;99.72;98011.94;1486114;87;21360;-77
2022/04/01 03:40:10;;;;;;;26.50;8.50;;;;;;;11.82;99.21;98015.91;1494293;87;21352;-75
2022/04/01 03:42:36;;;;;;;27.90;9.23;;;;;;;11.81;99.47;98014.30;1477011;87;22313;-75
2022/04/01 03:45:06;;;;;;;28.27;9.50;;;;;;;11.78;100.00;98014.73;1473477;87;22394;-76
2022/04/01 03:48:01;;;;;;;38.20;11.95;;;;;;;11.74;100.00;98014.36;1481045;87;21559;-75
2022/04/01 03:50:37;;;;;;;29.20;10.63;;;;;;;11.73;100.00;98012.20;1481340;87;22439;-75
2022/04/01 03:53:07;;;;;;;30.77;8.47;;;;;;;11.71;100.00;98004.99;1482063;87;22255;-76
2022/04/01 03:55:37;;;;;;;38.25;9.13;;;;;;;11.71;100.00;98011.62;1475310;87;21776;-80
2022/04/01 03:58:13;;;;;;;33.63;8.53;;;;;;;11.70;100.00;98013.95;1473681;87;21330;-80
2022/04/01 04:00:42;;;;;;;33.43;11.33;;;;;;;11.68;100.00;98008.08;1476290;86;21412;-80
2022/04/01 04:03:10;;;;;;;31.00;9.77;;;;;;;11.66;100.00;98006.66;1488695;87;21419;-80
2022/04/01 04:05:38;;;;;;;29.40;10.17;;;;;;;11.67;100.00;98012.25;1487485;87;22356;-82
2022/04/01 04:08:07;;;;;;;29.60;10.33;;;;;;;11.66;100.00;98009.31;1490180;87;21492;-81
2022/04/01 04:10:35;;;;;;;33.63;8.40;;;;;;;11.65;100.00;98009.83;1488033;87;21396;-81
2022/04/01 04:13:04;;;;;;;25.40;8.87;;;;;;;11.64;100.00;98012.16;1478492;87;21448;-81
2022/04/01 04:15:40;;;;;;;23.03;8.30;;;;;;;11.64;100.00;98015.33;1491364;87;21525;-79
2022/04/01 04:18:12;;;;;;;34.40;10.60;;;;;;;11.63;100.00;98011.06;1490890;87;21382;-80
2022/04/01 04:20:54;;;;;;;28.37;9.97;;;;;;;11.67;100.00;98009.59;1476556;87;21382;-80
2022/04/01 04:23:31;;;;;;;22.80;9.83;;;;;;;11.70;100.00;98011.30;1466537;87;21359;-80
2022/04/01 04:26:12;;;;;;;29.33;9.80;;;;;;;11.74;100.00;98011.19;1492972;87;22004;-80
2022/04/01 04:28:40;;;;;;;24.65;9.40;;;;;;;11.77;100.00;98013.92;1477931;87;21419;-81
2022/04/01 04:31:09;;;;;;;29.87;10.20;;;;;;;11.79;99.70;98007.07;1472647;87;21485;-81
2022/04/01 04:33:44;;;;;;;26.60;9.23;;;;;;;11.83;99.37;98005.11;1477875;87;21351;-80
2022/04/01 04:36:14;;;;;;;29.97;11.13;;;;;;;11.85;99.48;98006.21;1481105;87;21352;-78
2022/04/01 04:38:43;;;;;;;31.13;12.13;;;;;;;11.87;98.90;98008.98;1477727;87;21429;-78
2022/04/01 04:41:09;;;;;;;23.73;9.43;;;;;;;11.86;98.87;98010.53;1476037;88;21419;-79
2022/04/01 04:43:39;;;;;;;24.07;8.73;;;;;;;11.87;98.65;98008.17;1461375;87;22313;-79
2022/04/01 04:46:06;;;;;;;25.20;8.07;;;;;;;11.87;98.55;98004.20;1490353;87;22438;-80
2022/04/01 04:48:35;;;;;;;29.87;8.87;;;;;;;11.88;98.39;98016.41;1487972;87;21344;-79
2022/04/01 04:51:06;;;;;;;24.33;7.77;;;;;;;11.87;98.16;98010.83;1477352;87;21396;-79
2022/04/01 04:53:34;;;;;;;28.57;8.40;;;;;;;11.88;98.11;98020.39;1478588;87;21367;-79
2022/04/01 04:56:03;;;;;;;25.90;8.47;;;;;;;11.90;98.20;98019.67;1482686;87;21382;-79
2022/04/01 04:58:39;;;;;;;24.57;9.33;;;;;;;11.92;98.08;98021.60;1482910;87;21297;-79
2022/04/01 05:01:24;;;;;;;27.27;10.23;;;;;;;11.91;98.05;98027.91;1500150;87;21374;-79
2022/04/01 05:04:13;;;;;;;23.13;8.67;;;;;;;11.91;98.17;98023.44;1442994;89;21455;-78
2022/04/01 05:06:45;;;;;;;33.13;9.83;;;;;;;11.91;98.07;98026.58;1463424;87;21395;-80
2022/04/01 05:09:25;;;;;;;33.87;11.20;;;;;;;11.93;97.99;98021.89;1457557;88;21524;-80
2022/04/01 05:12:05;;;;;;;26.20;10.30;;;;;;;11.95;98.16;98017.19;1482718;88;21418;-79
2022/04/01 05:15:04;;;;;;;29.70;10.45;;;;;;;12.01;98.01;98021.63;1495555;87;22450;-80
2022/04/01 05:18:00;;;;;;;28.37;8.77;;;;;;;12.04;97.92;98024.37;1483065;88;21300;-81
2022/04/01 05:20:29;;;;;;;32.33;9.90;;;;;;;12.04;98.11;98021.20;1479680;87;22452;-82
2022/04/01 05:23:16;;;;;;;30.33;10.90;;;;;;;12.04;98.01;98018.55;1485952;88;21314;-82
2022/04/01 05:26:03;;;;;;;27.83;9.40;;;;;;;12.07;97.92;98019.44;1478357;88;21285;-82
2022/04/01 05:28:36;;;;;;;19.53;8.43;;;;;;;12.12;97.87;98018.80;1472940;87;21502;-80
2022/04/01 05:31:10;;;;;;;30.67;9.40;;;;;;;12.17;97.87;98017.65;1464500;87;21628;-81
2022/04/01 05:33:56;;;;;;;26.40;7.87;;;;;;;12.23;97.70;98022.57;1457761;89;21502;-80
2022/04/01 05:36:24;;;;;;;28.00;10.33;;;;;;;12.30;97.60;98018.03;1452872;89;23287;-80
2022/04/01 05:38:50;;;;;;;26.83;8.57;;;;;;;12.34;97.29;98026.68;1457908;89;21398;-81
2022/04/01 05:41:21;;;;;;;33.53;8.80;;;;;;;12.37;96.94;98028.06;1461446;89;21304;-80
2022/04/01 05:43:50;;;;;;;25.97;8.43;;;;;;;12.38;96.74;98033.16;1457492;88;22307;-80
2022/04/01 05:46:19;;;;;;;29.13;10.00;;;;;;;12.44;96.63;98036.78;1459274;89;21459;-81
2022/04/01 05:48:47;;;;;;;31.27;7.97;;;;;;;12.47;96.39;98032.38;1459286;89;21496;-81
2022/04/01 05:51:14;;;;;;;17.53;7.40;;;;;;;12.49;96.30;98037.47;1444095;89;21317;-80
2022/04/01 05:53:47;;;;;;;27.10;8.07;;;;;;;12.53;96.07;98038.12;1465060;89;21377;-80
2022/04/01 05:56:14;;;;;;;31.70;8.90;;;;;;;12.57;95.80;98039.82;1464229;89;21384;-81
2022/04/01 05:58:42;;;;;;;30.73;9.20;;;;;;;12.60;95.51;98036.23;1458216;89;21296;-81
2022/04/01 06:01:46;;;;;;;27.47;9.50;;;;;;;12.60;95.40;98037.56;1460505;89;21408;-81
2022/04/01 06:04:43;;;;;;;28.90;8.47;;;;;;;12.61;95.10;98035.20;1456595;89;21450;-80
2022/04/01 06:07:23;;;;;;;34.03;10.70;;;;;;;12.65;95.04;98041.67;1458317;89;21420;-81
2022/04/01 06:10:09;;;;;;;24.90;7.35;;;;;;;12.72;94.82;98038.17;1463400;88;22323;-81
2022/04/01 06:13:14;;;;;;;18.93;7.83;;;;;;;12.74;94.46;98040.07;1461762;89;21449;-80
2022/04/01 06:16:20;;;;;;;23.77;7.63;;;;;;;12.77;93.58;98042.28;1462115;89;22374;-81
2022/04/01 06:19:00;;;;;;;23.43;7.47;;;;;;;12.80;93.79;98037.86;1462807;89;22329;-81
2022/04/01 06:21:27;;;;;;;25.00;8.60;;;;;;;12.83;93.42;98041.40;1459097;88;21443;-82
2022/04/01 06:24:08;;;;;;;25.57;7.73;;;;;;;12.83;93.19;98042.73;1446764;89;21392;-81
2022/04/01 06:26:42;;;;;;;28.52;9.05;;;;;;;12.81;92.61;98046.14;1460399;88;21377;-81
2022/04/01 06:29:35;;;;;;;32.83;12.63;;;;;;;12.82;92.81;98038.46;1456643;88;22359;-81
2022/04/01 06:32:15;;;;;;;38.53;21.53;;;;;;;12.84;92.62;98036.41;1454364;89;21362;-82
2022/04/01 06:34:58;;;;;;;45.13;23.20;;;;;;;12.84;92.37;98044.38;1457792;89;21406;-81
2022/04/01 06:40:21;;;;;;;36.57;19.10;;;;;;;12.83;92.36;98048.03;1437911;90;21442;-81
2022/04/01 06:42:52;;;;;;;33.40;16.95;;;;;;;12.84;92.39;98048.36;1435258;90;21426;-81
2022/04/01 06:45:18;;;;;;;29.30;11.23;;;;;;;12.82;92.26;98049.08;1438771;90;21353;-81
2022/04/01 06:47:45;;;;;;;21.60;7.47;;;;;;;12.82;92.39;98051.21;1451034;90;21376;-81
2022/04/01 06:50:12;;;;;;;23.97;7.10;;;;;;;12.81;92.44;98050.92;1445556;90;21419;-81
2022/04/01 06:52:40;;;;;;;21.70;6.43;;;;;;;12.79;92.46;98046.87;1425230;90;21435;-81
2022/04/01 06:55:08;;;;;;;29.93;7.93;;;;;;;12.79;92.85;98054.83;1442528;90;22328;-81
2022/04/01 06:57:35;;;;;;;25.17;7.80;;;;;;;12.81;92.61;98047.47;1444677;90;21970;-81
2022/04/01 07:00:08;;;;;;;33.57;16.07;;;;;;;12.81;93.19;98044.81;1442125;90;21286;-81
2022/04/01 07:02:35;;;;;;;19.60;10.37;;;;;;;12.72;92.13;98040.83;1439775;90;21397;-80
2022/04/01 07:05:03;;;;;;;14.40;7.30;;;;;;;12.51;91.39;98044.67;1437506;90;21374;-80
2022/04/01 07:07:29;;;;;;;11.63;6.37;;;;;;;12.19;91.71;98045.55;1439124;90;21383;-80
2022/04/01 07:09:55;;;;;;;20.37;5.83;;;;;;;12.12;92.14;98048.77;1446153;90;21353;-79
2022/04/01 07:12:23;;;;;;;18.77;6.10;;;;;;;12.02;92.47;98051.59;1447941;90;21390;-79
2022/04/01 07:14:49;;;;;;;13.93;4.93;;;;;;;12.02;93.45;98054.25;1437904;89;21500;-80
2022/04/01 07:17:15;;;;;;;12.27;5.83;;;;;;;11.89;94.28;98048.02;1444393;90;21449;-78
2022/04/01 07:19:40;;;;;;;16.30;8.60;;;;;;;11.75;94.73;98055.20;1435843;89;22320;-79
2022/04/01 07:22:06;;;;;;;40.70;21.03;;;;;;;11.66;94.94;98052.51;1437752;90;21382;-80
2022/04/01 07:24:32;;;;;;;48.23;24.50;;;;;;;11.47;96.97;98049.44;1446937;89;22734;-80
2022/04/01 07:27:00;;;;;;;34.23;17.70;;;;;;;11.40;96.76;98048.67;1439584;90;21420;-80
2022/04/01 07:29:27;;;;;;;26.33;13.83;;;;;;;11.32;97.81;98052.36;1437355;90;21302;-79
2022/04/01 07:34:44;;;;;;;15.37;5.30;;;;;;;11.15;98.26;98047.23;1432840;90;22077;-80
2022/04/01 07:37:12;;;;;;;10.37;5.20;;;;;;;11.01;97.89;98048.59;1445738;89;21501;-79
2022/04/01 07:39:38;;;;;;;18.63;6.73;;;;;;;10.88;98.17;98053.94;1447042;89;21485;-80
2022/04/01 07:42:05;;;;;;;13.40;6.20;;;;;;;10.70;99.57;98053.75;1471903;89;21344;-79
2022/04/01 07:44:31;;;;;;;10.03;5.70;;;;;;;10.72;98.53;98049.89;1460305;88;22358;-79
2022/04/01 07:46:59;;;;;;;14.43;6.73;;;;;;;10.78;98.42;98055.67;1460004;88;22556;-79
2022/04/01 07:49:25;;;;;;;12.10;5.87;;;;;;;10.84;98.47;98054.84;1462912;89;21337;-79
2022/04/01 07:51:51;;;;;;;16.20;6.60;;;;;;;10.91;98.39;98052.72;1459896;89;21567;-79
2022/04/01 07:54:17;;;;;;;13.13;6.53;;;;;;;10.90;98.79;98053.72;1474370;89;21403;-79
2022/04/01 07:56:44;;;;;;;9.33;5.67;;;;;;;10.84;99.07;98052.19;1461050;89;21412;-79
2022/04/01 07:59:19;;;;;;;8.03;4.60;;;;;;;10.78;99.98;98050.37;1450898;89;21338;-79
2022/04/01 08:01:41;;;;;;;8.45;4.67;;;;;;;10.71;100.00;98046.95;1465205;89;21337;-79
2022/04/01 08:04:07;;;;;;;6.60;4.63;;;;;;;10.60;100.00;98043.61;1471636;89;22196;-79
2022/04/01 08:06:33;;;;;;;5.97;3.93;;;;;;;10.53;100.00;98050.72;1459120;89;21514;-80
2022/04/01 08:08:59;;;;;;;18.30;7.20;;;;;;;10.46;100.00;98053.89;1466795;89;21396;-80
2022/04/01 08:11:26;;;;;;;37.33;17.10;;;;;;;10.38;100.00;98053.06;1471089;88;21448;-79
2022/04/01 08:13:54;;;;;;;30.17;14.63;;;;;;;10.29;100.00;98052.97;1464498;89;22469;-79
2022/04/01 08:16:22;;;;;;;19.90;9.60;;;;;;;10.23;100.00;98059.05;1459515;89;21477;-79
2022/04/01 08:18:48;;;;;;;27.70;15.83;;;;;;;10.23;100.00;98061.69;1473531;88;21411;-79
2022/04/01 08:21:15;;;;;;;16.70;10.27;;;;;;;10.21;100.00;98055.78;1463501;88;21611;-79
2022/04/01 08:23:42;;;;;;;28.23;14.37;;;;;;;10.28;100.00;98054.52;1464777;89;22122;-79
2022/04/01 08:26:08;;;;;;;12.80;7.07;;;;;;;10.39;100.00;98050.75;1452488;89;21375;-79
2022/04/01 08:28:36;;;;;;;6.27;4.10;;;;;;;10.24;100.00;98050.13;1458275;89;21360;-79
2022/04/01 08:31:03;;;;;;;6.70;4.10;;;;;;;10.17;100.00;98046.13;1457757;89;21413;-79
2022/04/01 08:33:29;;;;;;;8.93;4.33;;;;;;;10.17;100.00;98051.94;1463421;89;22358;-79
2022/04/01 08:35:56;;;;;;;8.37;5.33;;;;;;;10.04;100.00;98040.02;1449042;89;21368;-79
2022/04/01 08:38:22;;;;;;;5.60;3.90;;;;;;;10.10;100.00;98035.27;1454709;89;21861;-79
2022/04/01 08:40:48;;;;;;;13.03;7.00;;;;;;;10.12;100.00;98038.50;1453876;89;22395;-79
2022/04/01 08:43:27;;;;;;;9.37;5.40;;;;;;;10.14;100.00;98043.90;1450939;89;22329;-79
2022/04/01 08:45:56;;;;;;;7.90;4.17;;;;;;;10.06;100.00;98047.25;1452771;89;21456;-79
2022/04/01 08:48:23;;;;;;;10.60;4.37;;;;;;;10.00;100.00;98042.77;1463592;89;21331;-79
2022/04/01 08:50:49;;;;;;;8.53;5.03;;;;;;;10.12;100.00;98046.44;1461854;89;21397;-79
2022/04/01 08:53:17;;;;;;;6.83;4.60;;;;;;;10.16;100.00;98048.48;1455992;89;21389;-79
2022/04/01 08:55:53;;;;;;;7.17;3.87;;;;;;;10.20;100.00;98046.23;1454758;89;21426;-79
2022/04/01 08:58:21;;;;;;;7.10;4.77;;;;;;;10.27;100.00;98039.17;1461258;89;22342;-79
2022/04/01 09:00:48;;;;;;;10.30;5.43;;;;;;;10.35;100.00;98043.41;1451065;89;21367;-79
2022/04/01 09:03:17;;;;;;;6.63;4.47;;;;;;;10.28;100.00;98039.47;1466112;89;21420;-79
2022/04/01 09:05:52;;;;;;;8.87;5.20;;;;;;;10.36;100.00;98044.55;1451742;89;21347;-79
2022/04/01 09:08:38;;;;;;;6.77;4.10;;;;;;;10.34;100.00;98039.97;1458413;89;21323;-79
2022/04/01 09:11:18;;;;;;;10.10;5.20;;;;;;;10.39;100.00;98045.98;1451704;89;21948;-79
2022/04/01 09:13:51;;;;;;;11.30;5.40;;;;;;;10.47;100.00;98046.25;1452847;89;22447;-79
2022/04/01 09:16:39;;;;;;;13.60;6.03;;;;;;;10.57;100.00;98043.50;1464347;89;21361;-79
2022/04/01 09:19:08;;;;;;;10.83;6.63;;;;;;;10.74;100.00;98047.86;1451405;89;21444;-79
2022/04/01 09:21:39;;;;;;;10.50;6.87;;;;;;;10.75;99.40;98051.31;1432897;91;22380;-79
2022/04/01 09:24:06;;;;;;;13.28;8.30;;;;;;;10.87;99.98;98046.19;1434742;91;21382;-79
2022/04/01 09:26:39;;;;;;;8.03;4.23;;;;;;;10.92;99.33;98035.80;1435655;91;21360;-79
2022/04/01 09:29:11;;;;;;;11.30;4.63;;;;;;;10.84;97.70;98033.67;1433045;91;21367;-79
2022/04/01 09:31:40;;;;;;;18.20;5.03;;;;;;;10.63;98.16;98053.77;1439272;91;21397;-81
2022/04/01 09:34:11;;;;;;;7.37;3.83;;;;;;;10.46;98.58;98052.57;1437035;91;21515;-81
2022/04/01 09:36:41;;;;;;;18.00;10.32;;;;;;;10.21;97.94;98043.89;1428767;91;21419;-81
2022/04/01 09:39:19;;;;;;;20.62;9.85;;;;;;;10.38;98.58;98030.59;1417654;92;21442;-81
2022/04/01 09:41:50;;;;;;;23.33;11.97;;;;;;;10.66;100.00;98035.36;1423191;91;21435;-85
2022/04/01 09:44:20;;;;;;;;;;;;;;;10.99;100.00;98032.61;1425540;91;21331;-84
2022/04/01 09:46:57;;;;;;;11.08;5.42;;;;;;;11.18;99.51;98027.77;1434936;91;20303;-85
2022/04/01 09:49:39;;;;;;;12.47;8.50;;;;;;;10.95;97.66;98030.09;1419006;92;21546;-85
2022/04/01 09:52:12;;;;;;;8.63;4.37;;;;;;;10.75;96.00;98034.92;1392484;92;21420;-85
2022/04/01 09:54:52;;;;;;;8.13;5.73;;;;;;;10.53;97.12;98042.78;1405226;92;21413;-84
2022/04/01 09:57:24;;;;;;;29.63;17.60;;;;;;;10.33;98.98;98036.22;1412575;92;21561;-80
2022/04/01 09:59:52;;;;;;;16.90;6.73;;;;;;;10.43;99.27;98027.86;1426770;91;21413;-79
2022/04/01 10:02:20;;;;;;;12.80;6.17;;;;;;;10.38;100.00;98034.56;1415185;92;22212;-79
2022/04/01 10:04:46;;;;;;;9.97;5.23;;;;;;;10.25;100.00;98031.91;1406088;93;21412;-79
2022/04/01 10:07:12;;;;;;;7.70;4.97;;;;;;;10.15;100.00;98038.09;1401440;92;21412;-79
2022/04/01 10:09:40;;;;;;;10.97;5.13;;;;;;;10.21;100.00;98034.64;1406535;92;22382;-79
2022/04/01 10:12:13;;;;;;;5.00;4.10;;;;;;;10.31;100.00;98029.80;1402180;92;21354;-79
2022/04/01 10:14:40;;;;;;;14.00;5.90;;;;;;;10.12;100.00;98020.00;1407048;92;21487;-79
2022/04/01 10:17:13;;;;;;;10.73;5.53;;;;;;;9.94;100.00;98025.90;1406870;92;21435;-78
2022/04/01 10:19:43;;;;;;;10.50;4.50;;;;;;;10.01;100.00;98017.97;1391800;94;21558;-83
2022/04/01 10:22:15;;;;;;;15.85;7.80;;;;;;;10.17;100.00;98008.32;1429680;91;21479;-82
2022/04/01 10:24:51;;;;;;;8.47;4.80;;;;;;;10.33;100.00;98030.42;1415892;92;21501;-81
2022/04/01 10:27:44;;;;;;;7.05;4.00;;;;;;;10.18;100.00;98020.51;1424073;91;21457;-82
2022/04/01 10:30:14;;;;;;;8.67;5.37;;;;;;;10.21;100.00;98024.06;1413001;92;21347;-82
2022/04/01 10:32:48;;;;;;;10.45;5.50;;;;;;;10.23;100.00;97990.32;1376072;94;22263;-83
2022/04/01 10:35:27;;;;;;;4.77;3.57;;;;;;;10.33;100.00;97998.69;1423536;91;21568;-82
2022/04/01 10:38:07;;;;;;;7.60;3.57;;;;;;;10.46;100.00;98013.72;1416498;92;22233;-84
2022/04/01 10:40:40;;;;;;;5.60;3.20;;;;;;;10.45;99.42;98012.61;1405500;93;22596;-84
2022/04/01 10:43:16;;;;;;;11.27;7.80;;;;;;;10.49;99.12;98011.98;1395846;93;21569;-84
2022/04/01 10:46:05;;;;;;;6.93;3.90;;;;;;;10.63;99.77;97998.74;1396893;92;23348;-83
2022/04/01 10:51:38;;;;;;;5.97;3.80;;;;;;;10.58;98.42;97983.48;1396824;93;21435;-83
2022/04/01 10:54:16;;;;;;;5.43;4.20;;;;;;;10.38;98.81;97985.64;1397554;93;21495;-83
2022/04/01 10:57:08;;;;;;;3.70;2.90;;;;;;;10.44;99.42;97969.47;1398186;93;21435;-83
2022/04/01 10:59:45;;;;;;;6.80;4.43;;;;;;;10.35;97.54;97980.77;1396961;93;21383;-81
2022/04/01 11:02:15;;;;;;;5.63;4.00;;;;;;;10.11;98.39;97966.85;1396796;93;21405;-81
2022/04/01 11:04:44;;;;;;;10.70;5.42;;;;;;;9.91;99.04;97968.98;1396130;93;21406;-81
2022/04/01 11:07:23;;;;;;;11.13;6.23;;;;;;;10.05;99.73;97968.99;1383453;93;21406;-81
2022/04/01 11:09:56;;;;;;;6.93;3.43;;;;;;;10.21;100.00;97967.23;1397882;93;21605;-81
2022/04/01 11:12:34;;;;;;;6.80;3.93;;;;;;;10.39;100.00;97958.20;1397753;93;21449;-81
2022/04/01 11:15:09;;;;;;;8.90;5.70;;;;;;;10.36;98.71;97975.00;1394735;93;21361;-81
2022/04/01 11:17:41;;;;;;;6.97;5.10;;;;;;;10.42;98.93;97978.66;1400424;93;21488;-81
2022/04/01 11:20:27;;;;;;;4.63;3.43;;;;;;;10.58;100.00;97966.28;1390953;93;21398;-81
2022/04/01 11:23:00;;;;;;;8.20;3.63;;;;;;;10.62;98.26;97966.19;1395890;93;22352;-81
2022/04/01 11:25:32;;;;;;;4.77;3.23;;;;;;;10.39;97.48;97952.11;1394287;93;21317;-82
2022/04/01 11:28:10;;;;;;;4.07;3.67;;;;;;;10.42;97.65;97946.41;1397831;93;21450;-81
2022/04/01 11:30:46;;;;;;;7.43;4.50;;;;;;;10.38;97.86;97944.66;1392678;93;21457;-81
2022/04/01 11:33:18;;;;;;;4.60;2.97;;;;;;;10.19;99.53;97953.43;1400555;93;21479;-82
2022/04/01 11:35:51;;;;;;;5.50;3.90;;;;;;;10.19;99.49;97946.82;1391372;93;21435;-82
2022/04/01 11:38:21;;;;;;;5.90;3.93;;;;;;;9.99;99.51;97940.75;1379470;93;21738;-81
2022/04/01 11:40:54;;;;;;;8.57;3.30;;;;;;;9.86;100.00;97933.11;1389286;93;21457;-81
2022/04/01 11:43:22;;;;;;;8.70;3.57;;;;;;;9.93;99.82;97924.69;1396824;93;23519;-82
2022/04/01 11:45:57;;;;;;;7.97;3.93;;;;;;;9.65;100.00;97919.61;1393979;93;21399;-82
2022/04/01 11:48:37;;;;;;;7.73;3.53;;;;;;;9.53;100.00;97923.88;1402657;93;21472;-81
2022/04/01 11:51:19;;;;;;;5.50;4.47;;;;;;;9.51;100.00;97939.61;1401994;93;21428;-81
2022/04/01 11:53:52;;;;;;;8.90;5.07;;;;;;;9.44;100.00;97954.12;1390410;93;21430;-81